Time,TemperatureF,DewpointF,PressureIn,WindDirection,WindDirectionDegrees,WindSpeedMPH,WindSpeedGustMPH,Humidity,HourlyPrecipIn,Conditions,Clouds,dailyrainin,SoftwareType,DateUTC
2015-08-30 00:01:00,74.3,64.7,30.12,SSE,153,0.0,0.0,72,0.00,,---,0.00,VWS V14.01,2015-08-29 22:01:00,
2015-08-30 00:06:00,74.1,64.5,30.12,SSE,153,0.0,0.0,72,0.00,,---,0.00,VWS V14.01,2015-08-29 22:06:00,
2015-08-30 00:11:00,74.1,64.5,30.12,SE,141,0.0,3.1,72,0.00,,---,0.00,VWS V14.01,2015-08-29 22:11:00,
2015-08-30 00:16:00,74.1,64.1,30.12,SE,141,0.0,0.0,71,0.00,,---,0.00,VWS V14.01,2015-08-29 22:16:00,
2015-08-30 00:21:00,73.9,64.0,30.12,SE,144,0.0,0.0,71,0.00,,---,0.00,VWS V14.01,2015-08-29 22:21:00,
2015-08-30 00:26:00,73.8,63.4,30.12,NNW,342,0.0,3.1,70,0.00,,---,0.00,VWS V14.01,2015-08-29 22:26:00,
2015-08-30 00:31:00,73.6,62.8,30.12,North,353,0.0,0.0,69,0.00,,---,0.00,VWS V14.01,2015-08-29 22:31:00,
2015-08-30 00:36:00,73.2,62.9,30.12,North,353,0.0,0.0,70,0.00,,---,0.00,VWS V14.01,2015-08-29 22:36:00,
2015-08-30 00:41:00,72.9,62.5,30.12,North,357,4.0,4.0,70,0.00,,---,0.00,VWS V14.01,2015-08-29 22:41:00,
2015-08-30 00:46:00,72.7,62.3,30.12,North,3,0.0,0.0,70,0.00,,---,0.00,VWS V14.01,2015-08-29 22:46:00,
2015-08-30 00:51:00,72.7,62.7,30.12,North,353,2.7,4.0,71,0.00,,---,0.00,VWS V14.01,2015-08-29 22:51:00,
2015-08-30 00:56:00,72.5,63.0,30.12,North,357,0.0,4.0,72,0.00,,---,0.00,VWS V14.01,2015-08-29 22:56:00,
2015-08-30 01:01:00,72.0,62.0,30.12,North,8,0.0,0.0,71,0.00,,---,0.00,VWS V14.01,2015-08-29 23:01:00,
2015-08-30 01:07:00,71.8,62.3,30.12,North,0,0.0,0.0,72,0.00,,---,0.00,VWS V14.01,2015-08-29 23:07:00,
2015-08-30 01:12:00,71.6,62.1,30.12,North,0,0.0,0.0,72,0.00,,---,0.00,VWS V14.01,2015-08-29 23:12:00,
2015-08-30 01:17:00,71.6,62.5,30.12,North,0,0.0,0.0,73,0.00,,---,0.00,VWS V14.01,2015-08-29 23:17:00,
2015-08-30 01:22:00,71.6,62.1,30.12,North,0,0.0,0.0,72,0.00,,---,0.00,VWS V14.01,2015-08-29 23:22:00,
2015-08-30 01:27:00,71.8,63.1,30.12,North,0,0.0,0.0,74,0.00,,---,0.00,VWS V14.01,2015-08-29 23:27:00,
2015-08-30 01:32:00,72.1,64.5,30.12,ESE,110,0.0,0.0,77,0.00,,---,0.00,VWS V14.01,2015-08-29 23:32:00,
2015-08-30 01:37:00,72.1,63.8,30.12,ESE,114,0.0,0.0,75,0.00,,---,0.00,VWS V14.01,2015-08-29 23:37:00,
2015-08-30 01:42:00,72.1,63.4,30.12,ESE,114,0.0,0.0,74,0.00,,---,0.00,VWS V14.01,2015-08-29 23:42:00,
2015-08-30 01:47:00,72.1,63.0,30.12,ESE,114,0.0,0.0,73,0.00,,---,0.00,VWS V14.01,2015-08-29 23:47:00,
2015-08-30 01:52:00,72.0,62.5,30.12,NE,39,0.0,0.0,72,0.00,,---,0.00,VWS V14.01,2015-08-29 23:52:00,
2015-08-30 01:57:00,72.0,62.0,30.12,NE,39,0.0,0.0,71,0.00,,---,0.00,VWS V14.01,2015-08-29 23:57:00,
2015-08-30 02:02:00,71.8,61.9,30.09,NE,39,0.0,0.0,71,0.00,,---,0.00,VWS V14.01,2015-08-30 00:02:00,
2015-08-30 02:07:00,71.6,61.3,30.09,NE,39,0.0,0.0,70,0.00,,---,0.00,VWS V14.01,2015-08-30 00:07:00,
2015-08-30 02:12:00,71.4,61.5,30.09,NE,39,0.0,0.0,71,0.00,,---,0.00,VWS V14.01,2015-08-30 00:12:00,
2015-08-30 02:17:00,71.2,61.4,30.09,NE,39,0.0,0.0,71,0.00,,---,0.00,VWS V14.01,2015-08-30 00:17:00,
2015-08-30 02:22:00,71.1,61.2,30.09,NE,39,0.0,0.0,71,0.00,,---,0.00,VWS V14.01,2015-08-30 00:22:00,
2015-08-30 02:27:00,70.9,61.0,30.09,NNW,341,0.0,0.0,71,0.00,,---,0.00,VWS V14.01,2015-08-30 00:27:00,
2015-08-30 02:32:00,70.7,60.8,30.09,NNW,342,0.0,0.0,71,0.00,,---,0.00,VWS V14.01,2015-08-30 00:32:00,
2015-08-30 02:37:00,70.3,60.5,30.09,NNW,342,0.0,0.0,71,0.00,,---,0.00,VWS V14.01,2015-08-30 00:37:00,
2015-08-30 02:42:00,70.2,60.3,30.09,NNW,342,0.0,0.0,71,0.00,,---,0.00,VWS V14.01,2015-08-30 00:42:00,
2015-08-30 02:47:00,70.0,60.2,30.09,NNW,342,0.0,0.0,71,0.00,,---,0.00,VWS V14.01,2015-08-30 00:47:00,
2015-08-30 02:52:00,69.8,60.4,30.09,NNW,342,0.0,0.0,72,0.00,,---,0.00,VWS V14.01,2015-08-30 00:52:00,
2015-08-30 02:57:00,69.4,60.4,30.09,NNW,342,0.0,0.0,73,0.00,,---,0.00,VWS V14.01,2015-08-30 00:57:00,
2015-08-30 03:02:00,69.4,60.4,30.09,NNW,342,0.0,0.0,73,0.00,,---,0.00,VWS V14.01,2015-08-30 01:02:00,
2015-08-30 03:07:00,69.3,60.6,30.09,NNW,342,0.0,0.0,74,0.00,,---,0.00,VWS V14.01,2015-08-30 01:07:00,
2015-08-30 03:13:00,69.1,60.5,30.09,NNW,342,0.0,0.0,74,0.00,,---,0.00,VWS V14.01,2015-08-30 01:13:00,
2015-08-30 03:18:00,69.1,60.1,30.09,NNW,342,0.0,0.0,73,0.00,,---,0.00,VWS V14.01,2015-08-30 01:18:00,
2015-08-30 03:23:00,68.9,59.9,30.09,NNW,342,0.0,0.0,73,0.00,,---,0.00,VWS V14.01,2015-08-30 01:23:00,
2015-08-30 03:28:00,68.7,59.7,30.09,NNW,342,0.0,0.0,73,0.00,,---,0.00,VWS V14.01,2015-08-30 01:28:00,
2015-08-30 03:33:00,68.5,59.5,30.09,NNW,342,0.0,0.0,73,0.00,,---,0.00,VWS V14.01,2015-08-30 01:33:00,
2015-08-30 03:38:00,68.4,59.8,30.09,NNW,342,0.0,0.0,74,0.00,,---,0.00,VWS V14.01,2015-08-30 01:38:00,
2015-08-30 03:43:00,68.0,60.2,30.09,North,5,0.0,0.0,76,0.00,,---,0.00,VWS V14.01,2015-08-30 01:43:00,
2015-08-30 03:48:00,68.0,60.5,30.09,North,1,0.0,0.0,77,0.00,,---,0.00,VWS V14.01,2015-08-30 01:48:00,
2015-08-30 03:53:00,67.8,60.7,30.09,North,0,0.0,0.0,78,0.00,,---,0.00,VWS V14.01,2015-08-30 01:53:00,
2015-08-30 03:58:00,67.8,60.3,30.09,North,357,0.0,0.0,77,0.00,,---,0.00,VWS V14.01,2015-08-30 01:58:00,
2015-08-30 04:03:00,67.8,60.3,30.09,North,0,0.0,0.0,77,0.00,,---,0.00,VWS V14.01,2015-08-30 02:03:00,
2015-08-30 04:08:00,67.8,60.3,30.09,North,0,0.0,0.0,77,0.00,,---,0.00,VWS V14.01,2015-08-30 02:08:00,
2015-08-30 04:13:00,67.6,59.8,30.09,North,353,0.0,0.0,76,0.00,,---,0.00,VWS V14.01,2015-08-30 02:13:00,
2015-08-30 04:18:00,67.5,59.6,30.09,North,357,0.0,0.0,76,0.00,,---,0.00,VWS V14.01,2015-08-30 02:18:00,
2015-08-30 04:23:00,67.1,59.3,30.09,North,2,0.0,0.0,76,0.00,,---,0.00,VWS V14.01,2015-08-30 02:23:00,
2015-08-30 04:28:00,67.1,59.3,30.09,North,3,0.0,0.0,76,0.00,,---,0.00,VWS V14.01,2015-08-30 02:28:00,
2015-08-30 04:33:00,66.9,59.1,30.09,North,2,0.0,0.0,76,0.00,,---,0.00,VWS V14.01,2015-08-30 02:33:00,
2015-08-30 04:38:00,66.9,59.1,30.09,North,2,0.0,0.0,76,0.00,,---,0.00,VWS V14.01,2015-08-30 02:38:00,
2015-08-30 04:43:00,66.7,58.9,30.09,North,2,0.0,0.0,76,0.00,,---,0.00,VWS V14.01,2015-08-30 02:43:00,
2015-08-30 04:48:00,66.7,58.9,30.09,North,2,0.0,0.0,76,0.00,,---,0.00,VWS V14.01,2015-08-30 02:48:00,
2015-08-30 04:53:00,66.7,58.9,30.09,North,2,0.0,0.0,76,0.00,,---,0.00,VWS V14.01,2015-08-30 02:53:00,
2015-08-30 04:58:00,66.6,58.8,30.09,North,2,0.0,0.0,76,0.00,,---,0.00,VWS V14.01,2015-08-30 02:58:00,
2015-08-30 05:03:00,66.6,58.8,30.09,North,2,0.0,0.0,76,0.00,,---,0.00,VWS V14.01,2015-08-30 03:03:00,
2015-08-30 05:08:00,66.4,58.2,30.09,North,2,0.0,0.0,75,0.00,,---,0.00,VWS V14.01,2015-08-30 03:08:00,
2015-08-30 05:14:00,66.4,58.6,30.09,North,2,0.0,0.0,76,0.00,,---,0.00,VWS V14.01,2015-08-30 03:14:00,
2015-08-30 05:19:00,66.2,58.0,30.09,NNW,343,0.0,0.0,75,0.00,,---,0.00,VWS V14.01,2015-08-30 03:19:00,
2015-08-30 05:24:00,66.0,57.9,30.09,NNW,343,0.0,0.0,75,0.00,,---,0.00,VWS V14.01,2015-08-30 03:24:00,
2015-08-30 05:29:00,66.0,57.9,30.09,NNW,342,0.0,0.0,75,0.00,,---,0.00,VWS V14.01,2015-08-30 03:29:00,
2015-08-30 05:34:00,65.8,57.3,30.09,NNW,342,0.0,0.0,74,0.00,,---,0.00,VWS V14.01,2015-08-30 03:34:00,
2015-08-30 05:39:00,65.7,57.2,30.09,NNW,342,0.0,0.0,74,0.00,,---,0.00,VWS V14.01,2015-08-30 03:39:00,
2015-08-30 05:44:00,65.7,57.2,30.09,NNW,342,0.0,0.0,74,0.00,,---,0.00,VWS V14.01,2015-08-30 03:44:00,
2015-08-30 05:49:00,65.7,57.2,30.09,NNW,342,0.0,0.0,74,0.00,,---,0.00,VWS V14.01,2015-08-30 03:49:00,
2015-08-30 05:54:00,65.7,56.8,30.09,NNW,342,0.0,0.0,73,0.00,,---,0.00,VWS V14.01,2015-08-30 03:54:00,
2015-08-30 05:59:00,65.7,56.4,30.09,NNW,343,0.0,0.0,72,0.00,,---,0.00,VWS V14.01,2015-08-30 03:59:00,
2015-08-30 06:04:00,65.5,56.2,30.09,NNW,342,0.0,0.0,72,0.00,,---,0.00,VWS V14.01,2015-08-30 04:04:00,
2015-08-30 06:09:00,65.5,56.2,30.09,NNW,342,0.0,0.0,72,0.00,,---,0.00,VWS V14.01,2015-08-30 04:09:00,
2015-08-30 06:14:00,65.3,56.0,30.09,NNW,342,0.0,0.0,72,0.00,,---,0.00,VWS V14.01,2015-08-30 04:14:00,
2015-08-30 06:19:00,65.3,56.0,30.09,NNW,342,0.0,0.0,72,0.00,,---,0.00,VWS V14.01,2015-08-30 04:19:00,
2015-08-30 06:24:00,65.3,56.4,30.09,NNE,13,0.0,0.0,73,0.00,,---,0.00,VWS V14.01,2015-08-30 04:24:00,
2015-08-30 06:29:00,65.1,56.6,30.09,North,357,0.0,0.0,74,0.00,,---,0.00,VWS V14.01,2015-08-30 04:29:00,
2015-08-30 06:34:00,64.9,56.5,30.09,North,357,0.0,0.0,74,0.00,,---,0.00,VWS V14.01,2015-08-30 04:34:00,
2015-08-30 06:39:00,64.9,56.8,30.09,North,357,0.0,0.0,75,0.00,,---,0.00,VWS V14.01,2015-08-30 04:39:00,
2015-08-30 06:44:00,64.9,56.8,30.09,North,357,0.0,0.0,75,0.00,,---,0.00,VWS V14.01,2015-08-30 04:44:00,
2015-08-30 06:49:00,64.8,56.7,30.09,North,357,0.0,0.0,75,0.00,,---,0.00,VWS V14.01,2015-08-30 04:49:00,
2015-08-30 06:54:00,64.8,56.7,30.09,North,357,0.0,0.0,75,0.00,,---,0.00,VWS V14.01,2015-08-30 04:54:00,
2015-08-30 06:59:00,64.8,56.7,30.09,North,357,0.0,0.0,75,0.00,,---,0.00,VWS V14.01,2015-08-30 04:59:00,
2015-08-30 07:07:00,64.8,56.7,30.09,North,357,0.0,0.0,75,0.00,,---,0.00,VWS V14.01,2015-08-30 05:07:00,
2015-08-30 07:12:00,64.8,57.0,30.09,North,357,0.0,0.0,76,0.00,,---,0.00,VWS V14.01,2015-08-30 05:12:00,
2015-08-30 07:18:00,64.6,57.2,30.09,North,357,0.0,0.0,77,0.00,,---,0.00,VWS V14.01,2015-08-30 05:18:00,
2015-08-30 07:23:00,64.6,56.8,30.09,North,357,0.0,0.0,76,0.00,,---,0.00,VWS V14.01,2015-08-30 05:23:00,
2015-08-30 07:28:00,64.6,56.8,30.09,North,357,0.0,0.0,76,0.00,,---,0.00,VWS V14.01,2015-08-30 05:28:00,
2015-08-30 07:33:00,64.4,57.0,30.09,North,357,0.0,0.0,77,0.00,,---,0.00,VWS V14.01,2015-08-30 05:33:00,
2015-08-30 07:38:00,64.4,56.7,30.09,North,357,0.0,0.0,76,0.00,,---,0.00,VWS V14.01,2015-08-30 05:38:00,
2015-08-30 07:43:00,64.2,56.5,30.09,North,357,0.0,0.0,76,0.00,,---,0.00,VWS V14.01,2015-08-30 05:43:00,
2015-08-30 07:48:00,64.2,56.9,30.09,North,357,0.0,0.0,77,0.00,,---,0.00,VWS V14.01,2015-08-30 05:48:00,
2015-08-30 07:53:00,64.2,56.9,30.09,North,357,0.0,0.0,77,0.00,,---,0.00,VWS V14.01,2015-08-30 05:53:00,
2015-08-30 07:58:00,64.4,56.7,30.09,North,357,0.0,0.0,76,0.00,,---,0.00,VWS V14.01,2015-08-30 05:58:00,
2015-08-30 08:03:00,64.4,57.0,30.09,North,357,0.0,0.0,77,0.00,,---,0.00,VWS V14.01,2015-08-30 06:03:00,
2015-08-30 08:08:00,64.6,56.8,30.09,North,357,0.0,0.0,76,0.00,,---,0.00,VWS V14.01,2015-08-30 06:08:00,
2015-08-30 08:13:00,64.8,57.0,30.09,North,357,0.0,0.0,76,0.00,,---,0.00,VWS V14.01,2015-08-30 06:13:00,
2015-08-30 08:18:00,64.8,56.7,30.09,North,357,0.0,0.0,75,0.00,,---,0.00,VWS V14.01,2015-08-30 06:18:00,
2015-08-30 08:23:00,64.9,56.8,30.09,North,357,0.0,0.0,75,0.00,,---,0.00,VWS V14.01,2015-08-30 06:23:00,
2015-08-30 08:28:00,65.1,57.0,30.09,North,357,0.0,0.0,75,0.00,,---,0.00,VWS V14.01,2015-08-30 06:28:00,
2015-08-30 08:33:00,65.3,57.2,30.09,North,357,0.0,0.0,75,0.00,,---,0.00,VWS V14.01,2015-08-30 06:33:00,
2015-08-30 08:38:00,65.7,57.5,30.09,West,277,0.0,0.0,75,0.00,,---,0.00,VWS V14.01,2015-08-30 06:38:00,
2015-08-30 08:43:00,66.2,58.0,30.09,West,277,0.0,0.0,75,0.00,,---,0.00,VWS V14.01,2015-08-30 06:43:00,
2015-08-30 08:48:00,66.6,58.0,30.09,West,277,0.0,0.0,74,0.00,,---,0.00,VWS V14.01,2015-08-30 06:48:00,
2015-08-30 08:53:00,66.9,57.2,30.09,South,171,0.0,5.4,71,0.00,,---,0.00,VWS V14.01,2015-08-30 06:53:00,
2015-08-30 08:58:00,67.5,57.3,30.09,South,176,0.0,5.4,70,0.00,,---,0.00,VWS V14.01,2015-08-30 06:58:00,
2015-08-30 09:03:00,68.0,57.1,30.09,South,177,0.0,0.0,68,0.00,,---,0.00,VWS V14.01,2015-08-30 07:03:00,
2015-08-30 09:08:00,68.4,56.6,30.09,West,261,0.0,0.0,66,0.00,,---,0.00,VWS V14.01,2015-08-30 07:08:00,
2015-08-30 09:13:00,68.7,55.6,30.09,West,266,0.0,4.0,63,0.00,,---,0.00,VWS V14.01,2015-08-30 07:13:00,
2015-08-30 09:18:00,69.3,54.8,30.09,West,271,0.0,3.6,60,0.00,,---,0.00,VWS V14.01,2015-08-30 07:18:00,
2015-08-30 09:23:00,69.6,55.6,30.09,SSW,210,0.0,4.0,61,0.00,,---,0.00,VWS V14.01,2015-08-30 07:23:00,
2015-08-30 09:24:00,69.8,54.8,30.09,SSE,162,0.0,4.0,59,0.00,,---,0.00,VWS V14.01,2015-08-30 07:24:00,
2015-08-30 09:29:00,70.3,53.9,30.09,WSW,253,2.7,4.0,56,0.00,,---,0.00,VWS V14.01,2015-08-30 07:29:00,
2015-08-30 09:34:00,70.7,55.2,30.09,WSW,253,0.0,0.0,58,0.00,,---,0.00,VWS V14.01,2015-08-30 07:34:00,
2015-08-30 09:39:00,71.2,54.3,30.09,WSW,241,0.0,0.0,55,0.00,,---,0.00,VWS V14.01,2015-08-30 07:39:00,
2015-08-30 09:44:00,71.6,53.6,30.09,WSW,242,0.0,0.0,53,0.00,,---,0.00,VWS V14.01,2015-08-30 07:44:00,
2015-08-30 09:49:00,71.8,52.7,30.09,ENE,70,0.0,0.0,51,0.00,,---,0.00,VWS V14.01,2015-08-30 07:49:00,
2015-08-30 09:54:00,72.3,53.2,30.09,ENE,71,0.0,0.0,51,0.00,,---,0.00,VWS V14.01,2015-08-30 07:54:00,
2015-08-30 09:59:00,73.0,53.9,30.09,ENE,70,0.0,0.0,51,0.00,,---,0.00,VWS V14.01,2015-08-30 07:59:00,
2015-08-30 10:04:00,73.6,52.7,30.09,NE,36,0.0,0.0,48,0.00,,---,0.00,VWS V14.01,2015-08-30 08:04:00,
2015-08-30 10:09:00,74.1,52.6,30.09,NNW,332,0.0,0.0,47,0.00,,---,0.00,VWS V14.01,2015-08-30 08:09:00,
2015-08-30 10:14:00,74.7,53.1,30.09,NNW,332,0.0,0.0,47,0.00,,---,0.00,VWS V14.01,2015-08-30 08:14:00,
2015-08-30 10:19:00,75.4,53.2,30.09,NE,44,0.0,0.0,46,0.00,,---,0.00,VWS V14.01,2015-08-30 08:19:00,
2015-08-30 10:24:00,76.1,52.0,30.09,ENE,59,0.0,0.0,43,0.00,,---,0.00,VWS V14.01,2015-08-30 08:24:00,
2015-08-30 10:29:00,76.8,53.3,30.09,NE,53,0.0,0.0,44,0.00,,---,0.00,VWS V14.01,2015-08-30 08:29:00,
2015-08-30 10:34:00,77.4,53.1,30.09,SSE,155,0.0,4.0,43,0.00,,---,0.00,VWS V14.01,2015-08-30 08:34:00,
2015-08-30 10:39:00,77.7,54.1,30.09,WSW,246,0.0,4.0,44,0.00,,---,0.00,VWS V14.01,2015-08-30 08:39:00,
2015-08-30 10:44:00,78.1,54.4,30.09,South,188,0.0,5.8,44,0.00,,---,0.00,VWS V14.01,2015-08-30 08:44:00,
2015-08-30 10:49:00,78.1,53.8,30.09,South,178,3.6,6.3,43,0.00,,---,0.00,VWS V14.01,2015-08-30 08:49:00,
2015-08-30 10:54:00,78.3,52.7,30.09,SSW,209,4.9,6.3,41,0.00,,---,0.00,VWS V14.01,2015-08-30 08:54:00,
2015-08-30 10:59:00,78.4,52.1,30.09,South,169,3.6,8.3,40,0.00,,---,0.00,VWS V14.01,2015-08-30 08:59:00,
2015-08-30 11:05:00,78.8,52.5,30.09,ESE,118,4.9,5.8,40,0.00,,---,0.00,VWS V14.01,2015-08-30 09:05:00,
2015-08-30 11:10:00,79.0,53.3,30.09,SE,141,3.6,6.3,41,0.00,,---,0.00,VWS V14.01,2015-08-30 09:10:00,
2015-08-30 11:15:00,79.2,54.1,30.09,South,171,2.2,6.3,42,0.00,,---,0.00,VWS V14.01,2015-08-30 09:15:00,
2015-08-30 11:20:00,79.7,53.9,30.09,SSE,164,5.4,5.4,41,0.00,,---,0.00,VWS V14.01,2015-08-30 09:20:00,
2015-08-30 11:25:00,79.9,54.8,30.09,WSW,239,2.2,5.4,42,0.00,,---,0.00,VWS V14.01,2015-08-30 09:25:00,
2015-08-30 11:30:00,80.4,55.2,30.09,SE,139,2.7,5.4,42,0.00,,---,0.00,VWS V14.01,2015-08-30 09:30:00,
2015-08-30 11:35:00,81.1,54.5,30.09,SW,225,0.0,5.4,40,0.00,,---,0.00,VWS V14.01,2015-08-30 09:35:00,
2015-08-30 11:40:00,81.5,54.2,30.09,ENE,60,0.0,5.4,39,0.00,,---,0.00,VWS V14.01,2015-08-30 09:40:00,
2015-08-30 11:45:00,81.7,54.3,30.09,NE,37,4.0,5.4,39,0.00,,---,0.00,VWS V14.01,2015-08-30 09:45:00,
2015-08-30 11:50:00,82.2,54.1,30.09,South,169,3.6,3.6,38,0.00,,---,0.00,VWS V14.01,2015-08-30 09:50:00,
2015-08-30 11:55:00,82.8,53.9,30.09,ESE,123,0.0,4.9,37,0.00,,---,0.00,VWS V14.01,2015-08-30 09:55:00,
2015-08-30 12:00:00,83.1,54.9,30.09,SE,137,0.0,4.9,38,0.00,,---,0.00,VWS V14.01,2015-08-30 10:00:00,
2015-08-30 12:05:00,83.3,54.3,30.09,SE,138,4.0,5.8,37,0.00,,---,0.00,VWS V14.01,2015-08-30 10:05:00,
2015-08-30 12:10:00,83.7,55.4,30.09,NE,51,0.0,5.8,38,0.00,,---,0.00,VWS V14.01,2015-08-30 10:10:00,
2015-08-30 12:15:00,83.7,54.7,30.09,SSE,160,3.1,5.8,37,0.00,,---,0.00,VWS V14.01,2015-08-30 10:15:00,
2015-08-30 12:20:00,84.0,55.7,30.09,WNW,300,3.6,5.4,38,0.00,,---,0.00,VWS V14.01,2015-08-30 10:20:00,
2015-08-30 12:25:00,83.8,54.1,30.09,SE,137,5.8,7.6,36,0.00,,---,0.00,VWS V14.01,2015-08-30 10:25:00,
2015-08-30 12:30:00,83.7,53.9,30.09,SW,222,3.6,7.6,36,0.00,,---,0.00,VWS V14.01,2015-08-30 10:30:00,
2015-08-30 12:35:00,84.0,53.5,30.09,SSE,164,3.6,7.6,35,0.00,,---,0.00,VWS V14.01,2015-08-30 10:35:00,
2015-08-30 12:40:00,84.4,53.8,30.09,SE,138,4.0,7.6,35,0.00,,---,0.00,VWS V14.01,2015-08-30 10:40:00,
2015-08-30 12:45:00,84.7,51.6,30.09,SSE,148,5.8,7.6,32,0.00,,---,0.00,VWS V14.01,2015-08-30 10:45:00,
2015-08-30 12:50:00,85.1,52.0,30.09,SE,127,3.1,5.8,32,0.00,,---,0.00,VWS V14.01,2015-08-30 10:50:00,
2015-08-30 12:55:00,84.6,50.6,30.09,SE,124,4.9,8.1,31,0.00,,---,0.00,VWS V14.01,2015-08-30 10:55:00,
2015-08-30 13:01:00,84.6,51.5,30.09,South,178,5.8,8.1,32,0.00,,---,0.00,VWS V14.01,2015-08-30 11:01:00,
2015-08-30 13:06:00,84.6,50.6,30.09,SE,135,0.0,6.3,31,0.00,,---,0.00,VWS V14.01,2015-08-30 11:06:00,
2015-08-30 13:11:00,84.9,50.9,30.09,SE,127,3.6,8.1,31,0.00,,---,0.00,VWS V14.01,2015-08-30 11:11:00,
2015-08-30 13:16:00,84.9,50.9,30.09,SE,146,4.9,8.3,31,0.00,,---,0.00,VWS V14.01,2015-08-30 11:16:00,
2015-08-30 13:21:00,85.1,51.1,30.09,SSE,162,4.0,8.3,31,0.00,,---,0.00,VWS V14.01,2015-08-30 11:21:00,
2015-08-30 13:26:00,84.9,50.9,30.09,East,93,3.1,8.3,31,0.00,,---,0.00,VWS V14.01,2015-08-30 11:26:00,
2015-08-30 13:31:00,85.1,51.1,30.09,SSE,147,2.7,4.0,31,0.00,,---,0.00,VWS V14.01,2015-08-30 11:31:00,
2015-08-30 13:36:00,85.3,50.4,30.06,ENE,61,4.0,8.3,30,0.00,,---,0.00,VWS V14.01,2015-08-30 11:36:00,
2015-08-30 13:41:00,85.6,52.4,30.06,WSW,243,0.0,8.3,32,0.00,,---,0.00,VWS V14.01,2015-08-30 11:41:00,
2015-08-30 13:46:00,85.6,50.7,30.06,SE,125,4.0,4.0,30,0.00,,---,0.00,VWS V14.01,2015-08-30 11:46:00,
2015-08-30 13:51:00,85.5,50.5,30.06,SSW,204,4.0,7.6,30,0.00,,---,0.00,VWS V14.01,2015-08-30 11:51:00,